sensor_id;sensor_type;location;lat;lon;timestamp;temperature;humidity
66271;DHT22;53063;39.614;8.814;2022-10-16T00:02:07;17.60;93.40
66271;DHT22;53063;39.614;8.814;2022-10-16T00:04:32;17.70;92.80
66271;DHT22;53063;39.614;8.814;2022-10-16T00:06:58;17.60;92.40
66271;DHT22;53063;39.614;8.814;2022-10-16T00:09:24;17.60;92.00
66271;DHT22;53063;39.614;8.814;2022-10-16T00:11:50;17.60;92.00
66271;DHT22;53063;39.614;8.814;2022-10-16T00:14:16;17.50;91.80
66271;DHT22;53063;39.614;8.814;2022-10-16T00:16:42;17.40;92.10
66271;DHT22;53063;39.614;8.814;2022-10-16T00:19:10;17.40;92.50
66271;DHT22;53063;39.614;8.814;2022-10-16T00:21:36;17.30;92.60
66271;DHT22;53063;39.614;8.814;2022-10-16T00:24:08;17.30;92.70
66271;DHT22;53063;39.614;8.814;2022-10-16T00:26:35;17.10;92.90
66271;DHT22;53063;39.614;8.814;2022-10-16T00:29:02;17.20;93.10
66271;DHT22;53063;39.614;8.814;2022-10-16T00:31:28;17.10;93.30
66271;DHT22;53063;39.614;8.814;2022-10-16T00:33:55;17.00;93.50
66271;DHT22;53063;39.614;8.814;2022-10-16T00:36:22;17.00;93.90
66271;DHT22;53063;39.614;8.814;2022-10-16T00:38:53;17.00;94.10
66271;DHT22;53063;39.614;8.814;2022-10-16T00:41:22;17.00;94.30
66271;DHT22;53063;39.614;8.814;2022-10-16T00:43:56;17.20;94.60
66271;DHT22;53063;39.614;8.814;2022-10-16T00:46:25;17.10;94.50
66271;DHT22;53063;39.614;8.814;2022-10-16T00:51:38;17.10;94.70
66271;DHT22;53063;39.614;8.814;2022-10-16T00:54:14;17.10;94.60
66271;DHT22;53063;39.614;8.814;2022-10-16T00:56:41;17.10;94.60
66271;DHT22;53063;39.614;8.814;2022-10-16T00:59:20;17.00;94.50
66271;DHT22;53063;39.614;8.814;2022-10-16T01:01:46;16.90;94.80
66271;DHT22;53063;39.614;8.814;2022-10-16T01:04:12;16.80;94.80
66271;DHT22;53063;39.614;8.814;2022-10-16T01:09:32;16.80;95.00
66271;DHT22;53063;39.614;8.814;2022-10-16T01:12:10;16.70;94.90
66271;DHT22;53063;39.614;8.814;2022-10-16T01:17:15;16.70;95.50
66271;DHT22;53063;39.614;8.814;2022-10-16T01:26:10;16.70;95.70
66271;DHT22;53063;39.614;8.814;2022-10-16T01:29:02;16.60;95.70
66271;DHT22;53063;39.614;8.814;2022-10-16T01:31:31;16.70;95.80
66271;DHT22;53063;39.614;8.814;2022-10-16T01:34:06;16.80;95.70
66271;DHT22;53063;39.614;8.814;2022-10-16T01:36:45;16.80;95.10
66271;DHT22;53063;39.614;8.814;2022-10-16T01:39:13;16.80;94.40
66271;DHT22;53063;39.614;8.814;2022-10-16T01:41:50;16.90;94.00
66271;DHT22;53063;39.614;8.814;2022-10-16T01:44:25;16.90;93.60
66271;DHT22;53063;39.614;8.814;2022-10-16T01:46:52;16.70;93.50
66271;DHT22;53063;39.614;8.814;2022-10-16T01:49:21;16.70;93.70
66271;DHT22;53063;39.614;8.814;2022-10-16T01:51:52;16.80;93.80
66271;DHT22;53063;39.614;8.814;2022-10-16T01:54:19;16.80;93.80
66271;DHT22;53063;39.614;8.814;2022-10-16T01:56:47;16.70;93.60
66271;DHT22;53063;39.614;8.814;2022-10-16T01:59:16;16.60;93.70
66271;DHT22;53063;39.614;8.814;2022-10-16T02:01:48;16.60;93.90
66271;DHT22;53063;39.614;8.814;2022-10-16T02:04:23;16.60;94.00
66271;DHT22;53063;39.614;8.814;2022-10-16T02:06:50;16.40;94.20
66271;DHT22;53063;39.614;8.814;2022-10-16T02:09:16;16.40;94.60
66271;DHT22;53063;39.614;8.814;2022-10-16T02:11:43;16.50;95.00
66271;DHT22;53063;39.614;8.814;2022-10-16T02:14:09;16.60;95.00
66271;DHT22;53063;39.614;8.814;2022-10-16T02:16:44;16.60;94.70
66271;DHT22;53063;39.614;8.814;2022-10-16T02:19:12;16.50;94.50
66271;DHT22;53063;39.614;8.814;2022-10-16T02:21:58;16.50;94.70
66271;DHT22;53063;39.614;8.814;2022-10-16T02:29:52;16.40;94.70
66271;DHT22;53063;39.614;8.814;2022-10-16T02:32:24;16.10;94.80
66271;DHT22;53063;39.614;8.814;2022-10-16T02:34:52;16.10;95.20
66271;DHT22;53063;39.614;8.814;2022-10-16T02:37:18;16.20;95.50
66271;DHT22;53063;39.614;8.814;2022-10-16T02:39:44;16.30;95.70
66271;DHT22;53063;39.614;8.814;2022-10-16T02:42:14;16.40;95.70
66271;DHT22;53063;39.614;8.814;2022-10-16T02:44:40;16.50;95.70
66271;DHT22;53063;39.614;8.814;2022-10-16T02:47:06;16.60;95.60
66271;DHT22;53063;39.614;8.814;2022-10-16T02:49:32;16.70;95.20
66271;DHT22;53063;39.614;8.814;2022-10-16T02:51:58;16.60;94.70
66271;DHT22;53063;39.614;8.814;2022-10-16T02:54:24;16.70;93.90
66271;DHT22;53063;39.614;8.814;2022-10-16T02:56:49;16.60;93.20
66271;DHT22;53063;39.614;8.814;2022-10-16T02:59:15;16.60;92.70
66271;DHT22;53063;39.614;8.814;2022-10-16T03:01:42;16.60;92.60
66271;DHT22;53063;39.614;8.814;2022-10-16T03:04:08;16.50;92.50
66271;DHT22;53063;39.614;8.814;2022-10-16T03:06:34;16.40;92.70
66271;DHT22;53063;39.614;8.814;2022-10-16T03:09:00;16.30;92.80
66271;DHT22;53063;39.614;8.814;2022-10-16T03:11:26;16.10;93.30
66271;DHT22;53063;39.614;8.814;2022-10-16T03:13:52;16.10;93.90
66271;DHT22;53063;39.614;8.814;2022-10-16T03:16:18;16.30;94.20
66271;DHT22;53063;39.614;8.814;2022-10-16T03:18:48;16.30;94.30
66271;DHT22;53063;39.614;8.814;2022-10-16T03:21:15;16.40;94.00
66271;DHT22;53063;39.614;8.814;2022-10-16T03:23:41;16.30;93.70
66271;DHT22;53063;39.614;8.814;2022-10-16T03:26:07;16.50;93.60
66271;DHT22;53063;39.614;8.814;2022-10-16T03:28:33;16.90;92.20
66271;DHT22;53063;39.614;8.814;2022-10-16T03:30:58;17.20;89.70
66271;DHT22;53063;39.614;8.814;2022-10-16T03:33:24;17.40;87.70
66271;DHT22;53063;39.614;8.814;2022-10-16T03:35:54;17.40;86.60
66271;DHT22;53063;39.614;8.814;2022-10-16T03:38:20;17.30;86.10
66271;DHT22;53063;39.614;8.814;2022-10-16T03:40:46;17.30;85.80
66271;DHT22;53063;39.614;8.814;2022-10-16T03:43:12;17.20;86.20
66271;DHT22;53063;39.614;8.814;2022-10-16T03:45:38;17.10;86.40
66271;DHT22;53063;39.614;8.814;2022-10-16T03:48:05;17.00;86.90
66271;DHT22;53063;39.614;8.814;2022-10-16T03:50:31;16.70;87.50
66271;DHT22;53063;39.614;8.814;2022-10-16T03:52:57;16.50;88.30
66271;DHT22;53063;39.614;8.814;2022-10-16T03:55:23;16.40;89.10
66271;DHT22;53063;39.614;8.814;2022-10-16T03:57:49;16.40;89.70
66271;DHT22;53063;39.614;8.814;2022-10-16T04:00:15;16.40;89.90
66271;DHT22;53063;39.614;8.814;2022-10-16T04:02:41;16.30;90.50
66271;DHT22;53063;39.614;8.814;2022-10-16T04:05:07;16.20;91.00
66271;DHT22;53063;39.614;8.814;2022-10-16T04:07:33;16.20;91.50
66271;DHT22;53063;39.614;8.814;2022-10-16T04:09:59;16.20;91.90
66271;DHT22;53063;39.614;8.814;2022-10-16T04:12:25;16.30;92.50
66271;DHT22;53063;39.614;8.814;2022-10-16T04:14:51;16.30;92.90
66271;DHT22;53063;39.614;8.814;2022-10-16T04:17:17;16.10;93.30
66271;DHT22;53063;39.614;8.814;2022-10-16T04:19:43;16.00;94.00
66271;DHT22;53063;39.614;8.814;2022-10-16T04:22:09;16.10;94.20
66271;DHT22;53063;39.614;8.814;2022-10-16T04:24:35;16.10;94.00
66271;DHT22;53063;39.614;8.814;2022-10-16T04:27:01;16.20;93.80
66271;DHT22;53063;39.614;8.814;2022-10-16T04:29:27;16.20;93.40
66271;DHT22;53063;39.614;8.814;2022-10-16T04:31:53;16.30;93.20
66271;DHT22;53063;39.614;8.814;2022-10-16T04:34:19;16.40;92.70
66271;DHT22;53063;39.614;8.814;2022-10-16T04:36:47;16.40;92.20
66271;DHT22;53063;39.614;8.814;2022-10-16T04:39:15;16.40;91.50
66271;DHT22;53063;39.614;8.814;2022-10-16T04:41:41;16.50;91.40
66271;DHT22;53063;39.614;8.814;2022-10-16T04:44:07;16.50;91.00
66271;DHT22;53063;39.614;8.814;2022-10-16T04:46:33;16.40;90.80
66271;DHT22;53063;39.614;8.814;2022-10-16T04:48:58;16.40;90.90
66271;DHT22;53063;39.614;8.814;2022-10-16T04:51:25;16.40;90.80
66271;DHT22;53063;39.614;8.814;2022-10-16T04:53:51;16.40;90.90
66271;DHT22;53063;39.614;8.814;2022-10-16T04:56:17;16.40;91.10
66271;DHT22;53063;39.614;8.814;2022-10-16T04:58:43;16.40;91.10
66271;DHT22;53063;39.614;8.814;2022-10-16T05:01:09;16.30;91.30
66271;DHT22;53063;39.614;8.814;2022-10-16T05:03:35;16.10;91.60
66271;DHT22;53063;39.614;8.814;2022-10-16T05:06:01;15.80;92.00
66271;DHT22;53063;39.614;8.814;2022-10-16T05:08:27;15.70;92.40
66271;DHT22;53063;39.614;8.814;2022-10-16T05:10:53;15.70;92.90
66271;DHT22;53063;39.614;8.814;2022-10-16T05:13:19;15.70;93.10
66271;DHT22;53063;39.614;8.814;2022-10-16T05:15:47;15.80;93.50
66271;DHT22;53063;39.614;8.814;2022-10-16T05:18:14;15.80;93.70
66271;DHT22;53063;39.614;8.814;2022-10-16T05:20:41;15.90;93.80
66271;DHT22;53063;39.614;8.814;2022-10-16T05:23:07;16.00;93.80
66271;DHT22;53063;39.614;8.814;2022-10-16T05:25:36;15.90;93.70
66271;DHT22;53063;39.614;8.814;2022-10-16T05:28:02;15.90;93.80
66271;DHT22;53063;39.614;8.814;2022-10-16T05:30:28;15.80;94.00
66271;DHT22;53063;39.614;8.814;2022-10-16T05:32:54;15.80;94.20
66271;DHT22;53063;39.614;8.814;2022-10-16T05:35:21;15.80;94.50
66271;DHT22;53063;39.614;8.814;2022-10-16T05:37:47;15.80;94.70
66271;DHT22;53063;39.614;8.814;2022-10-16T05:40:14;15.90;94.80
66271;DHT22;53063;39.614;8.814;2022-10-16T05:42:40;15.90;94.70
66271;DHT22;53063;39.614;8.814;2022-10-16T05:45:09;16.00;94.80
66271;DHT22;53063;39.614;8.814;2022-10-16T05:47:37;16.20;94.90
66271;DHT22;53063;39.614;8.814;2022-10-16T05:50:04;16.30;95.10
66271;DHT22;53063;39.614;8.814;2022-10-16T05:52:30;16.50;95.20
66271;DHT22;53063;39.614;8.814;2022-10-16T05:54:55;16.70;95.40
66271;DHT22;53063;39.614;8.814;2022-10-16T05:57:21;17.00;95.80
66271;DHT22;53063;39.614;8.814;2022-10-16T05:59:47;17.30;95.30
66271;DHT22;53063;39.614;8.814;2022-10-16T06:02:16;17.50;94.20
66271;DHT22;53063;39.614;8.814;2022-10-16T06:04:42;17.70;93.30
66271;DHT22;53063;39.614;8.814;2022-10-16T06:07:08;17.90;92.20
66271;DHT22;53063;39.614;8.814;2022-10-16T06:09:34;18.00;91.30
66271;DHT22;53063;39.614;8.814;2022-10-16T06:12:00;18.20;90.60
66271;DHT22;53063;39.614;8.814;2022-10-16T06:14:26;18.40;90.00
66271;DHT22;53063;39.614;8.814;2022-10-16T06:16:51;18.60;89.00
66271;DHT22;53063;39.614;8.814;2022-10-16T06:19:17;18.80;88.20
66271;DHT22;53063;39.614;8.814;2022-10-16T06:21:44;19.20;87.30
66271;DHT22;53063;39.614;8.814;2022-10-16T06:24:10;19.20;85.80
66271;DHT22;53063;39.614;8.814;2022-10-16T06:26:37;19.20;85.80
66271;DHT22;53063;39.614;8.814;2022-10-16T06:29:04;19.30;86.10
66271;DHT22;53063;39.614;8.814;2022-10-16T06:31:30;19.40;85.80
66271;DHT22;53063;39.614;8.814;2022-10-16T06:33:59;19.30;85.90
66271;DHT22;53063;39.614;8.814;2022-10-16T06:36:25;19.40;86.20
66271;DHT22;53063;39.614;8.814;2022-10-16T06:38:52;19.40;86.40
66271;DHT22;53063;39.614;8.814;2022-10-16T06:41:20;19.50;86.40
66271;DHT22;53063;39.614;8.814;2022-10-16T06:43:47;19.80;85.10
66271;DHT22;53063;39.614;8.814;2022-10-16T06:46:16;19.70;84.80
66271;DHT22;53063;39.614;8.814;2022-10-16T06:48:42;19.80;85.10
66271;DHT22;53063;39.614;8.814;2022-10-16T06:51:11;20.10;84.40
66271;DHT22;53063;39.614;8.814;2022-10-16T06:53:43;20.30;83.20
66271;DHT22;53063;39.614;8.814;2022-10-16T06:58:43;20.60;82.50
66271;DHT22;53063;39.614;8.814;2022-10-16T07:01:10;21.10;79.80
66271;DHT22;53063;39.614;8.814;2022-10-16T07:03:41;21.60;78.60
66271;DHT22;53063;39.614;8.814;2022-10-16T07:06:09;22.10;75.90
66271;DHT22;53063;39.614;8.814;2022-10-16T07:08:37;23.10;73.10
66271;DHT22;53063;39.614;8.814;2022-10-16T07:11:08;22.80;72.80
66271;DHT22;53063;39.614;8.814;2022-10-16T07:13:35;22.60;73.60
66271;DHT22;53063;39.614;8.814;2022-10-16T07:16:13;22.90;72.60
66271;DHT22;53063;39.614;8.814;2022-10-16T07:18:39;23.20;71.30
66271;DHT22;53063;39.614;8.814;2022-10-16T07:21:08;23.30;71.60
66271;DHT22;53063;39.614;8.814;2022-10-16T07:23:34;23.80;68.90
66271;DHT22;53063;39.614;8.814;2022-10-16T07:26:00;23.60;70.00
66271;DHT22;53063;39.614;8.814;2022-10-16T07:28:27;23.60;70.60
66271;DHT22;53063;39.614;8.814;2022-10-16T07:30:53;23.80;68.70
66271;DHT22;53063;39.614;8.814;2022-10-16T07:33:19;24.50;68.40
66271;DHT22;53063;39.614;8.814;2022-10-16T07:35:53;25.40;63.50
66271;DHT22;53063;39.614;8.814;2022-10-16T07:38:19;26.80;59.50
66271;DHT22;53063;39.614;8.814;2022-10-16T07:40:46;27.60;56.70
66271;DHT22;53063;39.614;8.814;2022-10-16T07:43:13;27.10;58.00
66271;DHT22;53063;39.614;8.814;2022-10-16T07:45:47;28.00;56.60
66271;DHT22;53063;39.614;8.814;2022-10-16T07:48:14;28.60;55.20
66271;DHT22;53063;39.614;8.814;2022-10-16T07:50:40;29.20;52.30
66271;DHT22;53063;39.614;8.814;2022-10-16T07:53:07;28.60;54.00
66271;DHT22;53063;39.614;8.814;2022-10-16T07:55:33;28.30;54.70
66271;DHT22;53063;39.614;8.814;2022-10-16T07:57:59;29.40;52.10
66271;DHT22;53063;39.614;8.814;2022-10-16T08:00:25;29.60;51.10
66271;DHT22;53063;39.614;8.814;2022-10-16T08:02:50;29.10;52.40
66271;DHT22;53063;39.614;8.814;2022-10-16T08:05:16;28.50;52.30
66271;DHT22;53063;39.614;8.814;2022-10-16T08:07:42;28.60;53.00
66271;DHT22;53063;39.614;8.814;2022-10-16T08:10:16;28.90;52.30
66271;DHT22;53063;39.614;8.814;2022-10-16T08:12:42;29.70;51.30
66271;DHT22;53063;39.614;8.814;2022-10-16T08:15:09;28.40;54.20
66271;DHT22;53063;39.614;8.814;2022-10-16T08:17:35;30.00;51.30
66271;DHT22;53063;39.614;8.814;2022-10-16T08:20:01;30.10;50.30
66271;DHT22;53063;39.614;8.814;2022-10-16T08:22:28;29.60;52.60
66271;DHT22;53063;39.614;8.814;2022-10-16T08:24:53;30.30;51.10
66271;DHT22;53063;39.614;8.814;2022-10-16T08:27:19;31.00;49.30
66271;DHT22;53063;39.614;8.814;2022-10-16T08:29:45;30.40;50.20
66271;DHT22;53063;39.614;8.814;2022-10-16T08:32:11;30.70;48.80
66271;DHT22;53063;39.614;8.814;2022-10-16T08:34:37;31.50;47.90
66271;DHT22;53063;39.614;8.814;2022-10-16T08:37:04;31.20;47.70
66271;DHT22;53063;39.614;8.814;2022-10-16T08:39:30;30.20;48.30
66271;DHT22;53063;39.614;8.814;2022-10-16T08:47:08;31.00;47.90
66271;DHT22;53063;39.614;8.814;2022-10-16T08:49:38;30.90;47.70
66271;DHT22;53063;39.614;8.814;2022-10-16T08:52:12;30.90;47.60
66271;DHT22;53063;39.614;8.814;2022-10-16T08:54:42;30.20;49.80
66271;DHT22;53063;39.614;8.814;2022-10-16T08:57:16;32.00;45.60
66271;DHT22;53063;39.614;8.814;2022-10-16T08:59:43;31.00;47.90
66271;DHT22;53063;39.614;8.814;2022-10-16T09:07:50;31.90;46.50
66271;DHT22;53063;39.614;8.814;2022-10-16T09:15:59;32.60;45.60
66271;DHT22;53063;39.614;8.814;2022-10-16T09:21:36;29.90;49.00
66271;DHT22;53063;39.614;8.814;2022-10-16T09:24:20;28.10;52.30
66271;DHT22;53063;39.614;8.814;2022-10-16T09:26:47;28.00;52.00
66271;DHT22;53063;39.614;8.814;2022-10-16T09:29:18;27.90;51.70
66271;DHT22;53063;39.614;8.814;2022-10-16T09:31:49;27.40;51.70
66271;DHT22;53063;39.614;8.814;2022-10-16T09:34:39;27.60;52.90
66271;DHT22;53063;39.614;8.814;2022-10-16T09:37:14;27.70;54.00
66271;DHT22;53063;39.614;8.814;2022-10-16T09:39:45;27.20;53.00
66271;DHT22;53063;39.614;8.814;2022-10-16T09:42:18;28.30;52.90
66271;DHT22;53063;39.614;8.814;2022-10-16T09:44:50;28.00;53.90
66271;DHT22;53063;39.614;8.814;2022-10-16T09:47:19;27.70;53.10
66271;DHT22;53063;39.614;8.814;2022-10-16T09:49:56;27.50;54.30
66271;DHT22;53063;39.614;8.814;2022-10-16T09:52:24;27.20;55.70
66271;DHT22;53063;39.614;8.814;2022-10-16T09:54:58;27.30;55.00
66271;DHT22;53063;39.614;8.814;2022-10-16T09:57:24;27.10;55.80
66271;DHT22;53063;39.614;8.814;2022-10-16T09:59:52;27.60;54.70
66271;DHT22;53063;39.614;8.814;2022-10-16T10:02:23;27.30;53.80
66271;DHT22;53063;39.614;8.814;2022-10-16T10:04:54;27.70;53.60
66271;DHT22;53063;39.614;8.814;2022-10-16T10:07:26;27.90;54.80
66271;DHT22;53063;39.614;8.814;2022-10-16T10:09:53;28.10;53.50
66271;DHT22;53063;39.614;8.814;2022-10-16T10:12:21;28.10;55.10
66271;DHT22;53063;39.614;8.814;2022-10-16T10:14:50;27.50;55.60
66271;DHT22;53063;39.614;8.814;2022-10-16T10:17:25;27.40;55.30
66271;DHT22;53063;39.614;8.814;2022-10-16T10:19:54;27.60;55.90
66271;DHT22;53063;39.614;8.814;2022-10-16T10:22:24;27.10;54.70
66271;DHT22;53063;39.614;8.814;2022-10-16T10:34:01;27.40;51.20
66271;DHT22;53063;39.614;8.814;2022-10-16T10:37:05;27.40;51.70
66271;DHT22;53063;39.614;8.814;2022-10-16T10:39:50;27.60;50.80
66271;DHT22;53063;39.614;8.814;2022-10-16T10:50:34;27.20;52.20
66271;DHT22;53063;39.614;8.814;2022-10-16T10:53:33;27.40;51.90
66271;DHT22;53063;39.614;8.814;2022-10-16T11:08:09;27.40;50.40
66271;DHT22;53063;39.614;8.814;2022-10-16T11:16:19;27.30;48.30
66271;DHT22;53063;39.614;8.814;2022-10-16T11:18:59;27.60;49.90
66271;DHT22;53063;39.614;8.814;2022-10-16T11:21:28;27.40;49.20
66271;DHT22;53063;39.614;8.814;2022-10-16T11:26:35;27.20;51.10
66271;DHT22;53063;39.614;8.814;2022-10-16T11:29:05;27.50;50.20
66271;DHT22;53063;39.614;8.814;2022-10-16T11:31:40;27.20;51.30
66271;DHT22;53063;39.614;8.814;2022-10-16T11:39:33;27.40;50.80
66271;DHT22;53063;39.614;8.814;2022-10-16T11:47:44;27.50;50.50
66271;DHT22;53063;39.614;8.814;2022-10-16T11:55:38;27.80;49.50
66271;DHT22;53063;39.614;8.814;2022-10-16T12:06:47;27.30;50.70
66271;DHT22;53063;39.614;8.814;2022-10-16T12:09:30;27.40;51.30
66271;DHT22;53063;39.614;8.814;2022-10-16T12:11:57;27.20;51.40
66271;DHT22;53063;39.614;8.814;2022-10-16T12:14:38;27.30;51.90
66271;DHT22;53063;39.614;8.814;2022-10-16T12:19:58;27.50;50.20
66271;DHT22;53063;39.614;8.814;2022-10-16T12:22:28;27.50;51.30
66271;DHT22;53063;39.614;8.814;2022-10-16T12:24:55;27.30;52.10
66271;DHT22;53063;39.614;8.814;2022-10-16T12:27:33;27.10;52.30
66271;DHT22;53063;39.614;8.814;2022-10-16T12:30:04;27.30;52.50
66271;DHT22;53063;39.614;8.814;2022-10-16T12:32:37;27.30;52.90
66271;DHT22;53063;39.614;8.814;2022-10-16T12:35:16;27.50;54.30
66271;DHT22;53063;39.614;8.814;2022-10-16T12:37:44;27.40;53.80
66271;DHT22;53063;39.614;8.814;2022-10-16T12:40:14;27.10;55.20
66271;DHT22;53063;39.614;8.814;2022-10-16T12:42:40;27.10;55.50
66271;DHT22;53063;39.614;8.814;2022-10-16T12:45:26;27.10;55.80
66271;DHT22;53063;39.614;8.814;2022-10-16T12:47:55;27.50;56.00
66271;DHT22;53063;39.614;8.814;2022-10-16T12:50:34;27.20;55.00
66271;DHT22;53063;39.614;8.814;2022-10-16T12:53:02;27.10;54.30
66271;DHT22;53063;39.614;8.814;2022-10-16T12:55:45;27.20;55.70
66271;DHT22;53063;39.614;8.814;2022-10-16T13:20:12;26.80;56.30
66271;DHT22;53063;39.614;8.814;2022-10-16T13:22:54;26.90;55.80
66271;DHT22;53063;39.614;8.814;2022-10-16T13:28:11;26.90;56.40
66271;DHT22;53063;39.614;8.814;2022-10-16T13:30:52;26.60;56.10
66271;DHT22;53063;39.614;8.814;2022-10-16T13:33:25;26.70;56.10
66271;DHT22;53063;39.614;8.814;2022-10-16T13:35:55;26.70;57.10
66271;DHT22;53063;39.614;8.814;2022-10-16T13:38:31;26.40;57.50
66271;DHT22;53063;39.614;8.814;2022-10-16T13:41:06;26.60;57.70
66271;DHT22;53063;39.614;8.814;2022-10-16T13:43:43;26.60;56.90
66271;DHT22;53063;39.614;8.814;2022-10-16T13:46:16;26.50;57.10
66271;DHT22;53063;39.614;8.814;2022-10-16T13:48:42;26.30;57.80
66271;DHT22;53063;39.614;8.814;2022-10-16T13:51:17;26.30;59.10
66271;DHT22;53063;39.614;8.814;2022-10-16T13:53:44;26.10;59.20
66271;DHT22;53063;39.614;8.814;2022-10-16T13:56:14;26.10;58.90
66271;DHT22;53063;39.614;8.814;2022-10-16T13:58:41;25.80;60.40
66271;DHT22;53063;39.614;8.814;2022-10-16T14:01:40;25.70;60.60
66271;DHT22;53063;39.614;8.814;2022-10-16T14:04:11;26.00;60.50
66271;DHT22;53063;39.614;8.814;2022-10-16T14:06:44;25.90;61.00
66271;DHT22;53063;39.614;8.814;2022-10-16T14:09:32;25.80;60.70
66271;DHT22;53063;39.614;8.814;2022-10-16T14:12:01;25.70;60.70
66271;DHT22;53063;39.614;8.814;2022-10-16T14:14:39;25.60;61.20
66271;DHT22;53063;39.614;8.814;2022-10-16T14:17:06;25.70;61.40
66271;DHT22;53063;39.614;8.814;2022-10-16T14:19:32;25.40;63.10
66271;DHT22;53063;39.614;8.814;2022-10-16T14:21:59;25.40;63.10
66271;DHT22;53063;39.614;8.814;2022-10-16T14:24:31;25.40;63.20
66271;DHT22;53063;39.614;8.814;2022-10-16T14:26:59;25.50;63.90
66271;DHT22;53063;39.614;8.814;2022-10-16T14:29:28;25.40;63.70
66271;DHT22;53063;39.614;8.814;2022-10-16T14:32:02;25.40;63.30
66271;DHT22;53063;39.614;8.814;2022-10-16T14:34:31;25.30;63.90
66271;DHT22;53063;39.614;8.814;2022-10-16T14:37:27;25.30;64.00
66271;DHT22;53063;39.614;8.814;2022-10-16T14:39:54;25.00;64.00
66271;DHT22;53063;39.614;8.814;2022-10-16T14:42:22;24.90;63.90
66271;DHT22;53063;39.614;8.814;2022-10-16T14:44:54;24.90;63.80
66271;DHT22;53063;39.614;8.814;2022-10-16T14:47:23;24.60;65.70
66271;DHT22;53063;39.614;8.814;2022-10-16T14:49:55;24.60;65.40
66271;DHT22;53063;39.614;8.814;2022-10-16T14:52:23;24.70;66.50
66271;DHT22;53063;39.614;8.814;2022-10-16T14:54:50;24.60;66.50
66271;DHT22;53063;39.614;8.814;2022-10-16T14:57:22;24.70;65.50
66271;DHT22;53063;39.614;8.814;2022-10-16T14:59:49;24.60;66.50
66271;DHT22;53063;39.614;8.814;2022-10-16T15:04:46;24.40;65.60
66271;DHT22;53063;39.614;8.814;2022-10-16T15:07:12;24.40;66.70
66271;DHT22;53063;39.614;8.814;2022-10-16T15:09:38;24.40;67.40
66271;DHT22;53063;39.614;8.814;2022-10-16T15:12:04;24.50;67.10
66271;DHT22;53063;39.614;8.814;2022-10-16T15:14:30;24.30;66.70
66271;DHT22;53063;39.614;8.814;2022-10-16T15:16:57;24.10;68.00
66271;DHT22;53063;39.614;8.814;2022-10-16T15:19:23;24.20;67.10
66271;DHT22;53063;39.614;8.814;2022-10-16T15:21:49;24.00;67.00
66271;DHT22;53063;39.614;8.814;2022-10-16T15:24:15;24.00;67.80
66271;DHT22;53063;39.614;8.814;2022-10-16T15:26:41;24.00;68.20
66271;DHT22;53063;39.614;8.814;2022-10-16T15:29:07;23.90;69.00
66271;DHT22;53063;39.614;8.814;2022-10-16T15:31:33;23.90;68.90
66271;DHT22;53063;39.614;8.814;2022-10-16T15:34:00;23.70;68.60
66271;DHT22;53063;39.614;8.814;2022-10-16T15:36:34;23.70;69.10
66271;DHT22;53063;39.614;8.814;2022-10-16T15:39:09;23.80;68.70
66271;DHT22;53063;39.614;8.814;2022-10-16T15:41:37;23.60;68.30
66271;DHT22;53063;39.614;8.814;2022-10-16T15:44:03;23.50;68.60
66271;DHT22;53063;39.614;8.814;2022-10-16T15:46:29;23.40;68.90
66271;DHT22;53063;39.614;8.814;2022-10-16T15:48:58;23.50;69.30
66271;DHT22;53063;39.614;8.814;2022-10-16T15:51:25;23.40;70.00
66271;DHT22;53063;39.614;8.814;2022-10-16T15:53:53;23.30;70.30
66271;DHT22;53063;39.614;8.814;2022-10-16T15:56:19;23.20;70.70
66271;DHT22;53063;39.614;8.814;2022-10-16T15:58:45;23.30;71.10
66271;DHT22;53063;39.614;8.814;2022-10-16T16:01:11;23.20;71.10
66271;DHT22;53063;39.614;8.814;2022-10-16T16:03:38;23.10;71.70
66271;DHT22;53063;39.614;8.814;2022-10-16T16:06:08;23.00;72.00
66271;DHT22;53063;39.614;8.814;2022-10-16T16:08:34;22.90;72.40
66271;DHT22;53063;39.614;8.814;2022-10-16T16:11:12;22.90;72.90
66271;DHT22;53063;39.614;8.814;2022-10-16T16:13:38;22.80;73.20
66271;DHT22;53063;39.614;8.814;2022-10-16T16:16:13;22.70;73.70
66271;DHT22;53063;39.614;8.814;2022-10-16T16:18:40;22.60;74.10
66271;DHT22;53063;39.614;8.814;2022-10-16T16:21:07;22.50;74.30
66271;DHT22;53063;39.614;8.814;2022-10-16T16:23:33;22.40;74.50
66271;DHT22;53063;39.614;8.814;2022-10-16T16:28:35;22.30;75.50
66271;DHT22;53063;39.614;8.814;2022-10-16T16:31:02;22.20;75.90
66271;DHT22;53063;39.614;8.814;2022-10-16T16:33:28;22.10;76.30
66271;DHT22;53063;39.614;8.814;2022-10-16T16:36:03;22.10;76.80
66271;DHT22;53063;39.614;8.814;2022-10-16T16:38:29;22.00;77.20
66271;DHT22;53063;39.614;8.814;2022-10-16T16:40:57;21.90;78.20
66271;DHT22;53063;39.614;8.814;2022-10-16T16:43:25;21.80;78.40
66271;DHT22;53063;39.614;8.814;2022-10-16T16:45:51;21.70;78.80
66271;DHT22;53063;39.614;8.814;2022-10-16T16:48:17;21.70;79.30
66271;DHT22;53063;39.614;8.814;2022-10-16T16:50:43;21.70;79.60
66271;DHT22;53063;39.614;8.814;2022-10-16T16:53:09;21.60;80.00
66271;DHT22;53063;39.614;8.814;2022-10-16T16:55:35;21.60;80.40
66271;DHT22;53063;39.614;8.814;2022-10-16T16:58:01;21.50;80.90
66271;DHT22;53063;39.614;8.814;2022-10-16T17:00:28;21.40;81.20
66271;DHT22;53063;39.614;8.814;2022-10-16T17:02:54;21.40;81.70
66271;DHT22;53063;39.614;8.814;2022-10-16T17:05:20;21.30;82.30
66271;DHT22;53063;39.614;8.814;2022-10-16T17:07:46;21.30;82.40
66271;DHT22;53063;39.614;8.814;2022-10-16T17:10:12;21.20;83.20
66271;DHT22;53063;39.614;8.814;2022-10-16T17:12:37;21.10;83.60
66271;DHT22;53063;39.614;8.814;2022-10-16T17:15:04;21.20;83.50
66271;DHT22;53063;39.614;8.814;2022-10-16T17:17:30;21.00;84.20
66271;DHT22;53063;39.614;8.814;2022-10-16T17:19:56;20.90;84.80
66271;DHT22;53063;39.614;8.814;2022-10-16T17:22:21;21.00;85.00
66271;DHT22;53063;39.614;8.814;2022-10-16T17:24:48;21.00;84.80
66271;DHT22;53063;39.614;8.814;2022-10-16T17:27:15;21.00;84.80
66271;DHT22;53063;39.614;8.814;2022-10-16T17:29:41;21.00;84.90
66271;DHT22;53063;39.614;8.814;2022-10-16T17:32:07;20.90;85.20
66271;DHT22;53063;39.614;8.814;2022-10-16T17:34:33;20.80;85.30
66271;DHT22;53063;39.614;8.814;2022-10-16T17:37:00;20.80;85.70
66271;DHT22;53063;39.614;8.814;2022-10-16T17:39:26;20.80;85.90
66271;DHT22;53063;39.614;8.814;2022-10-16T17:41:52;20.70;86.30
66271;DHT22;53063;39.614;8.814;2022-10-16T17:44:18;20.70;86.40
66271;DHT22;53063;39.614;8.814;2022-10-16T17:46:49;20.60;86.70
66271;DHT22;53063;39.614;8.814;2022-10-16T17:49:16;20.60;87.00
66271;DHT22;53063;39.614;8.814;2022-10-16T17:51:42;20.50;87.30
66271;DHT22;53063;39.614;8.814;2022-10-16T17:54:08;20.60;87.50
66271;DHT22;53063;39.614;8.814;2022-10-16T17:56:34;20.60;87.60
66271;DHT22;53063;39.614;8.814;2022-10-16T17:59:01;20.60;87.60